Time;durP1;ratioP1;P1;durP2;ratioP2;P2;SDS_P1;SDS_P2;PMS_P1;PMS_P2;Temp;Humidity;BMP_temperature;BMP_pressure;BME280_temperature;BME280_humidity;BME280_pressure;Samples;Min_cycle;Max_cycle;Signal;HPM_P1;HPM_P2
2022/05/08 00:02:15;;;;;;;12.10;10.40;;;;;;;13.69;100.00;95361.22;4974694;28;20225;-58
2022/05/08 00:04:40;;;;;;;12.33;10.90;;;;;;;13.69;100.00;95356.50;4974916;28;20195;-57
2022/05/08 00:07:06;;;;;;;12.87;11.47;;;;;;;13.50;100.00;95343.56;4975149;28;20196;-58
2022/05/08 00:09:31;;;;;;;12.83;11.53;;;;;;;13.60;100.00;95339.84;4974875;28;20196;-56
2022/05/08 00:11:57;;;;;;;13.90;12.50;;;;;;;13.45;100.00;95319.38;4975104;28;20215;-55
2022/05/08 00:14:23;;;;;;;13.67;12.27;;;;;;;13.45;100.00;95308.41;4974772;28;20188;-55
2022/05/08 00:16:49;;;;;;;13.53;12.23;;;;;;;13.48;100.00;95291.09;4974609;28;20219;-52
2022/05/08 00:19:15;;;;;;;13.67;12.27;;;;;;;13.33;100.00;95284.34;4974755;28;20211;-56
2022/05/08 00:21:40;;;;;;;14.03;12.63;;;;;;;13.26;100.00;95285.25;4974780;28;20193;-56
2022/05/08 00:24:06;;;;;;;13.83;12.23;;;;;;;13.23;100.00;95268.88;4974345;28;20305;-66
2022/05/08 00:26:31;;;;;;;14.70;13.10;;;;;;;13.26;100.00;95268.06;4974659;28;20291;-51
2022/05/08 00:28:57;;;;;;;14.93;13.43;;;;;;;13.25;100.00;95266.47;4974350;28;20199;-64
2022/05/08 00:31:23;;;;;;;15.33;13.67;;;;;;;13.30;100.00;95253.03;4974632;28;20297;-63
2022/05/08 00:33:49;;;;;;;15.20;13.60;;;;;;;13.34;100.00;95247.50;4974553;28;20222;-63
2022/05/08 00:36:14;;;;;;;15.03;13.53;;;;;;;13.32;100.00;95252.63;4974779;28;20191;-63
2022/05/08 00:38:40;;;;;;;15.80;14.10;;;;;;;13.30;100.00;95249.56;4974293;28;20185;-63
2022/05/08 00:41:07;;;;;;;16.43;14.30;;;;;;;13.18;100.00;95250.16;4974506;28;20278;-62
2022/05/08 00:43:37;;;;;;;18.10;15.37;;;;;;;13.24;100.00;95243.78;4974189;28;20219;-56
2022/05/08 00:46:11;;;;;;;16.97;14.50;;;;;;;13.17;100.00;95238.44;4974653;28;20218;-60
2022/05/08 00:48:38;;;;;;;17.00;14.97;;;;;;;13.19;100.00;95224.31;4974705;28;20198;-60
2022/05/08 00:51:06;;;;;;;17.27;15.33;;;;;;;13.18;100.00;95223.53;4974428;28;20203;-58
2022/05/08 00:53:36;;;;;;;19.80;14.97;;;;;;;13.13;100.00;95226.00;4974653;28;20196;-58
2022/05/08 00:56:05;;;;;;;18.13;15.23;;;;;;;13.16;100.00;95225.16;4974284;28;20194;-58
2022/05/08 00:58:31;;;;;;;18.37;15.93;;;;;;;13.10;100.00;95218.63;4974533;28;20212;-58
2022/05/08 01:00:57;;;;;;;18.67;15.70;;;;;;;13.12;100.00;95213.50;4973992;28;20194;-68
2022/05/08 01:03:22;;;;;;;19.20;16.00;;;;;;;13.08;100.00;95204.56;4973396;28;20301;-59
2022/05/08 01:05:50;;;;;;;19.63;17.53;;;;;;;13.10;100.00;95200.22;4974125;28;20232;-55
2022/05/08 01:08:16;;;;;;;21.33;17.07;;;;;;;13.04;100.00;95206.63;4974217;28;20215;-56
2022/05/08 01:10:41;;;;;;;20.80;17.23;;;;;;;13.06;100.00;95204.22;4973940;28;20218;-56
2022/05/08 01:13:07;;;;;;;19.23;17.20;;;;;;;12.94;100.00;95207.56;4974057;28;20194;-56
2022/05/08 01:15:43;;;;;;;19.10;16.67;;;;;;;13.00;100.00;95197.66;4974115;28;20184;-55
2022/05/08 01:18:09;;;;;;;22.53;18.27;;;;;;;13.08;100.00;95190.88;4973810;28;20238;-55
2022/05/08 01:20:35;;;;;;;19.37;16.73;;;;;;;13.11;100.00;95185.28;4974329;28;20398;-60
2022/05/08 01:23:05;;;;;;;19.60;17.20;;;;;;;12.99;100.00;95183.22;4973895;28;20207;-57
2022/05/08 01:25:32;;;;;;;21.10;17.80;;;;;;;12.95;100.00;95193.44;4973652;28;20258;-57
2022/05/08 01:27:58;;;;;;;21.77;17.90;;;;;;;12.94;100.00;95180.91;4973721;28;20189;-57
2022/05/08 01:30:23;;;;;;;22.20;18.67;;;;;;;12.87;100.00;95194.00;4973828;28;20184;-57
2022/05/08 01:32:49;;;;;;;21.87;18.60;;;;;;;12.93;100.00;95184.09;4973629;28;20229;-57
2022/05/08 01:35:14;;;;;;;20.73;18.33;;;;;;;12.97;100.00;95187.53;4973700;28;20194;-57
2022/05/08 01:37:40;;;;;;;21.03;18.27;;;;;;;13.02;100.00;95173.38;4973686;28;20268;-61
2022/05/08 01:40:07;;;;;;;21.50;18.33;;;;;;;12.90;100.00;95179.47;4973597;28;20220;-58
2022/05/08 01:42:32;;;;;;;22.67;18.77;;;;;;;12.90;100.00;95179.47;4974766;28;20209;-80
2022/05/08 01:44:57;;;;;;;21.17;18.40;;;;;;;12.84;100.00;95181.16;4974463;28;20188;-80
2022/05/08 01:50:07;;;;;;;20.33;18.13;;;;;;;13.05;100.00;95175.25;4976308;28;20197;-80
2022/05/08 01:52:32;;;;;;;22.33;18.43;;;;;;;13.10;100.00;95177.50;4974720;28;20227;-79
2022/05/08 01:54:58;;;;;;;21.90;17.70;;;;;;;13.16;100.00;95170.31;4975070;28;20190;-81
2022/05/08 01:57:23;;;;;;;21.40;18.27;;;;;;;13.06;100.00;95165.84;4973718;28;20580;-61
2022/05/08 01:59:48;;;;;;;21.80;18.57;;;;;;;13.05;100.00;95175.25;4973781;28;20196;-59
2022/05/08 02:02:13;;;;;;;19.47;16.57;;;;;;;12.96;100.00;95166.78;4973107;28;20195;-60
2022/05/08 02:04:40;;;;;;;21.73;17.67;;;;;;;13.02;100.00;95173.38;4973017;28;20216;-57
2022/05/08 02:07:05;;;;;;;20.23;17.33;;;;;;;13.06;100.00;95174.06;4973148;28;20192;-58
2022/05/08 02:09:31;;;;;;;19.60;17.43;;;;;;;12.98;100.00;95169.94;4974228;28;20180;-58
2022/05/08 02:11:56;;;;;;;20.17;17.43;;;;;;;13.01;100.00;95174.56;4973323;28;20191;-58
2022/05/08 02:14:21;;;;;;;19.43;16.70;;;;;;;13.05;100.00;95169.78;4975851;28;20195;-76
2022/05/08 02:16:47;;;;;;;19.50;17.40;;;;;;;13.03;100.00;95174.91;4976927;28;20208;-61
2022/05/08 02:19:12;;;;;;;19.43;17.27;;;;;;;12.94;100.00;95169.19;4976772;28;20282;-80
2022/05/08 02:21:37;;;;;;;19.43;17.27;;;;;;;12.93;100.00;95170.41;4976732;28;20638;-80
2022/05/08 02:24:03;;;;;;;21.07;17.57;;;;;;;12.99;100.00;95166.75;4977121;28;20249;-83
2022/05/08 02:26:28;;;;;;;20.13;17.80;;;;;;;13.03;100.00;95172.16;4977035;28;20191;-82
2022/05/08 02:28:53;;;;;;;19.57;17.00;;;;;;;12.98;100.00;95165.22;4977103;28;20187;-80
2022/05/08 02:31:19;;;;;;;21.37;17.77;;;;;;;12.96;100.00;95167.56;4976534;28;20190;-80
2022/05/08 02:33:44;;;;;;;21.23;17.60;;;;;;;12.99;100.00;95164.03;4976100;28;20202;-77
2022/05/08 02:36:10;;;;;;;20.00;17.30;;;;;;;12.94;100.00;95164.47;4976263;28;20254;-62
2022/05/08 02:38:37;;;;;;;21.83;17.93;;;;;;;12.96;100.00;95162.09;4976020;28;20241;-64
2022/05/08 02:41:02;;;;;;;20.73;17.50;;;;;;;12.97;100.00;95162.88;4976005;28;20186;-63
2022/05/08 02:43:27;;;;;;;20.83;17.80;;;;;;;12.98;100.00;95164.44;4976018;28;20241;-63
2022/05/08 02:45:53;;;;;;;21.30;18.47;;;;;;;12.93;100.00;95162.19;4976282;28;20194;-63
2022/05/08 02:48:18;;;;;;;21.17;17.57;;;;;;;13.00;100.00;95164.78;4975896;28;20200;-62
2022/05/08 02:50:43;;;;;;;20.77;17.40;;;;;;;12.96;100.00;95161.31;4975881;28;20220;-51
2022/05/08 02:53:09;;;;;;;21.37;17.70;;;;;;;13.02;100.00;95165.13;4976386;28;20199;-58
2022/05/08 02:58:33;;;;;;;22.60;18.23;;;;;;;13.04;100.00;95162.75;4977476;28;20234;-59
2022/05/08 03:01:00;;;;;;;23.40;18.70;;;;;;;12.93;100.00;95168.41;4976344;28;20289;-59
2022/05/08 03:03:26;;;;;;;22.53;18.37;;;;;;;12.99;100.00;95168.72;4975364;28;20211;-61
2022/05/08 03:05:52;;;;;;;24.57;19.73;;;;;;;12.89;100.00;95161.44;4975982;28;20253;-59
2022/05/08 03:08:18;;;;;;;21.83;18.60;;;;;;;12.92;100.00;95166.09;4975600;28;20207;-59
2022/05/08 03:13:40;;;;;;;22.27;19.40;;;;;;;12.77;100.00;95159.38;4976724;28;20213;-78
2022/05/08 03:16:07;;;;;;;22.40;19.00;;;;;;;12.89;100.00;95150.50;4975768;28;20277;-79
2022/05/08 03:18:34;;;;;;;24.33;19.77;;;;;;;12.95;100.00;95154.28;4975518;28;20197;-71
2022/05/08 03:21:00;;;;;;;24.40;20.07;;;;;;;12.87;100.00;95152.91;4975909;28;20195;-68
2022/05/08 03:23:26;;;;;;;23.93;19.80;;;;;;;12.89;100.00;95161.44;4975778;28;20239;-69
2022/05/08 03:25:51;;;;;;;24.50;19.83;;;;;;;12.85;100.00;95149.78;4974693;28;20191;-67
2022/05/08 03:28:17;;;;;;;26.30;20.90;;;;;;;12.74;100.00;95154.72;4975575;28;20191;-54
2022/05/08 03:30:43;;;;;;;27.97;20.77;;;;;;;12.78;100.00;95155.41;4975309;28;20196;-58
2022/05/08 03:33:09;;;;;;;28.17;21.37;;;;;;;12.82;100.00;95156.16;4975405;28;20190;-58
2022/05/08 03:35:39;;;;;;;24.83;20.67;;;;;;;12.76;100.00;95166.06;4975351;28;20245;-59
2022/05/08 03:38:06;;;;;;;26.90;21.67;;;;;;;12.82;100.00;95154.16;4975387;28;20186;-58
2022/05/08 03:40:36;;;;;;;27.37;21.70;;;;;;;12.81;100.00;95149.09;4975131;28;20205;-58
2022/05/08 03:43:02;;;;;;;29.40;21.93;;;;;;;12.84;100.00;95156.47;4975408;28;20279;-60
2022/05/08 03:45:29;;;;;;;28.43;23.60;;;;;;;12.79;100.00;95157.75;4975122;28;20198;-63
2022/05/08 03:47:54;;;;;;;28.87;23.27;;;;;;;12.81;100.00;95155.38;4975251;28;20201;-61
2022/05/08 03:50:21;;;;;;;29.70;24.20;;;;;;;12.75;100.00;95156.28;4975396;28;20196;-53
2022/05/08 03:52:46;;;;;;;28.67;24.10;;;;;;;12.78;100.00;95149.94;4975398;28;20201;-52
2022/05/08 03:55:13;;;;;;;28.97;24.00;;;;;;;12.84;100.00;95156.47;4976109;28;20197;-54
2022/05/08 03:57:38;;;;;;;30.47;24.53;;;;;;;12.76;100.00;95144.88;4974880;28;20198;-53
2022/05/08 04:00:05;;;;;;;29.50;23.87;;;;;;;12.74;100.00;95151.97;4974984;28;20227;-52
2022/05/08 04:02:30;;;;;;;30.43;25.00;;;;;;;12.72;100.00;95157.13;4974973;28;20317;-52
2022/05/08 04:04:56;;;;;;;27.97;24.37;;;;;;;12.69;100.00;95152.50;4974957;28;20181;-65
2022/05/08 04:07:21;;;;;;;30.83;24.93;;;;;;;12.76;100.00;95157.81;4975371;28;20187;-57
2022/05/08 04:09:46;;;;;;;29.70;24.67;;;;;;;12.73;100.00;95156.72;4975561;28;20187;-59
2022/05/08 04:12:12;;;;;;;29.27;23.67;;;;;;;12.77;100.00;95151.16;4975055;28;20234;-59
2022/05/08 04:14:37;;;;;;;29.63;23.73;;;;;;;12.80;100.00;95153.03;4975125;28;20280;-59
2022/05/08 04:17:03;;;;;;;30.53;24.77;;;;;;;12.79;100.00;95155.00;4974566;28;20243;-59
2022/05/08 04:19:28;;;;;;;30.37;24.77;;;;;;;12.87;100.00;95158.38;4974722;28;20187;-61
2022/05/08 04:24:16;;;;;;;30.43;24.53;;;;;;;12.77;100.00;95157.41;4974180;28;20192;-59
2022/05/08 04:24:45;;;;;;;31.20;25.10;;;;;;;12.67;100.00;95160.34;4975337;28;20207;-59
2022/05/08 04:27:10;;;;;;;29.60;24.47;;;;;;;12.63;100.00;95171.38;4974620;28;20191;-57
2022/05/08 04:29:37;;;;;;;32.53;25.67;;;;;;;12.77;100.00;95159.38;4974307;28;20203;-58
2022/05/08 04:32:03;;;;;;;29.67;24.80;;;;;;;12.78;100.00;95169.91;4974669;28;20202;-57
2022/05/08 04:34:28;;;;;;;30.47;24.63;;;;;;;12.83;100.00;95168.66;4974379;28;20196;-58
2022/05/08 04:36:54;;;;;;;28.53;24.43;;;;;;;12.82;100.00;95161.63;4973698;28;20196;-57
2022/05/08 04:39:20;;;;;;;30.07;24.10;;;;;;;12.92;100.00;95166.09;4974654;28;20199;-57
2022/05/08 04:41:45;;;;;;;29.57;23.67;;;;;;;12.83;100.00;95176.88;4974567;28;20235;-59
2022/05/08 04:44:10;;;;;;;30.63;24.00;;;;;;;12.81;100.00;95162.81;4974405;28;20218;-61
2022/05/08 04:46:35;;;;;;;31.27;24.37;;;;;;;12.79;100.00;95162.47;4974410;28;20190;-57
2022/05/08 04:49:01;;;;;;;31.00;25.13;;;;;;;12.81;100.00;95169.06;4974193;28;20215;-57
2022/05/08 04:51:26;;;;;;;28.27;24.10;;;;;;;12.86;100.00;95173.28;4973960;28;20199;-57
2022/05/08 04:53:52;;;;;;;27.37;23.40;;;;;;;12.93;100.00;95170.41;4974115;28;20219;-59
2022/05/08 04:56:17;;;;;;;28.43;23.93;;;;;;;12.99;100.00;95169.50;4974216;28;20246;-58
2022/05/08 04:58:43;;;;;;;30.50;24.03;;;;;;;12.89;100.00;95172.41;4973969;28;20194;-55
2022/05/08 05:01:08;;;;;;;29.30;22.97;;;;;;;12.94;100.00;95169.19;4974153;28;20189;-62
2022/05/08 05:03:34;;;;;;;28.87;23.13;;;;;;;12.95;100.00;95173.47;4973989;28;20202;-62
2022/05/08 05:05:59;;;;;;;29.30;23.73;;;;;;;13.00;100.00;95178.47;4974496;28;20193;-62
2022/05/08 05:08:24;;;;;;;26.40;22.80;;;;;;;12.98;100.00;95180.88;4973959;28;20183;-62
2022/05/08 05:10:50;;;;;;;26.37;23.07;;;;;;;13.04;100.00;95190.16;4974068;28;20187;-61
2022/05/08 05:13:15;;;;;;;27.27;22.97;;;;;;;13.11;100.00;95187.25;4974089;28;20186;-61
2022/05/08 05:15:41;;;;;;;26.73;22.73;;;;;;;13.11;100.00;95190.00;4973878;28;20209;-61
2022/05/08 05:18:06;;;;;;;30.07;23.23;;;;;;;13.10;100.00;95194.72;4974180;28;20219;-61
2022/05/08 05:20:31;;;;;;;25.57;22.33;;;;;;;13.18;100.00;95198.06;4974437;28;20245;-65
2022/05/08 05:23:01;;;;;;;27.53;22.43;;;;;;;13.14;100.00;95194.63;4973579;28;20210;-67
2022/05/08 05:25:27;;;;;;;28.07;23.30;;;;;;;13.19;100.00;95202.38;4973819;28;20192;-66
2022/05/08 05:27:53;;;;;;;26.73;22.33;;;;;;;13.30;100.00;95202.94;4973791;28;20247;-67
2022/05/08 05:30:18;;;;;;;26.83;23.63;;;;;;;13.24;100.00;95210.88;4973993;28;20230;-67
2022/05/08 05:32:44;;;;;;;25.67;22.17;;;;;;;13.19;100.00;95213.34;4974478;28;20210;-67
2022/05/08 05:35:11;;;;;;;26.63;22.57;;;;;;;13.29;100.00;95217.81;4973696;28;20183;-66
2022/05/08 05:37:36;;;;;;;27.00;23.60;;;;;;;13.33;100.00;95210.28;4973556;28;20211;-67
2022/05/08 05:40:02;;;;;;;26.60;22.43;;;;;;;13.45;100.00;95215.13;4973739;28;20191;-52
2022/05/08 05:42:28;;;;;;;27.17;23.43;;;;;;;13.37;100.00;95221.19;4973573;28;20183;-54
2022/05/08 05:44:54;;;;;;;27.03;22.77;;;;;;;13.36;100.00;95222.41;4974720;28;20234;-53
2022/05/08 05:50:03;;;;;;;26.63;22.87;;;;;;;13.49;100.00;95226.00;4978477;28;20177;-53
2022/05/08 05:52:29;;;;;;;30.77;23.90;;;;;;;13.42;100.00;95237.91;4976787;28;20196;-53
2022/05/08 05:54:54;;;;;;;27.00;22.83;;;;;;;13.38;100.00;95237.22;4977510;28;20203;-67
2022/05/08 05:57:19;;;;;;;28.93;23.37;;;;;;;13.55;100.00;95241.53;4976672;28;20263;-66
2022/05/08 05:59:45;;;;;;;31.60;23.00;;;;;;;13.56;100.00;95232.13;4976868;28;20201;-56
2022/05/08 06:02:11;;;;;;;28.87;24.30;;;;;;;13.47;100.00;95240.16;4977829;28;20180;-56
2022/05/08 06:04:36;;;;;;;27.07;22.90;;;;;;;13.63;100.00;95245.69;4977002;28;20202;-57
2022/05/08 06:07:02;;;;;;;30.07;23.43;;;;;;;13.65;100.00;95246.03;4976650;28;20191;-57
2022/05/08 06:09:27;;;;;;;28.00;23.93;;;;;;;13.58;100.00;95257.16;4976555;28;20216;-57
2022/05/08 06:11:53;;;;;;;26.43;23.53;;;;;;;13.68;100.00;95256.16;4976642;28;20191;-58
2022/05/08 06:14:19;;;;;;;28.37;24.17;;;;;;;13.65;100.00;95259.75;4976656;28;20195;-67
2022/05/08 06:16:45;;;;;;;28.97;23.60;;;;;;;13.55;100.00;95274.47;4976779;28;20242;-59
2022/05/08 06:19:10;;;;;;;27.20;24.23;;;;;;;13.76;100.00;95270.50;4976650;28;20195;-59
2022/05/08 06:21:35;;;;;;;28.57;24.20;;;;;;;13.93;100.00;95278.31;4976734;28;20226;-58
2022/05/08 06:24:00;;;;;;;27.47;23.43;;;;;;;13.89;100.00;95285.09;4976620;28;20208;-61
2022/05/08 06:26:26;;;;;;;25.73;21.93;;;;;;;13.98;100.00;95283.31;4976459;28;20192;-60
2022/05/08 06:28:52;;;;;;;23.73;21.13;;;;;;;14.13;100.00;95281.75;4976415;28;20192;-57
2022/05/08 06:31:17;;;;;;;26.17;22.13;;;;;;;14.10;100.00;95281.88;4976153;28;20560;-59
2022/05/08 06:33:43;;;;;;;23.83;21.13;;;;;;;14.16;100.00;95289.16;4976308;28;20275;-58
2022/05/08 06:36:09;;;;;;;23.30;20.80;;;;;;;14.13;100.00;95292.75;4976322;28;20188;-57
2022/05/08 06:38:34;;;;;;;24.17;20.27;;;;;;;14.13;100.00;95295.50;4976144;28;20223;-58
2022/05/08 06:41:00;;;;;;;24.17;20.33;;;;;;;14.22;100.00;95301.22;4975992;28;20231;-58
2022/05/08 06:43:25;;;;;;;22.27;19.87;;;;;;;14.06;100.00;95309.38;4976074;28;20219;-58
2022/05/08 06:45:50;;;;;;;23.60;21.07;;;;;;;14.28;100.00;95310.47;4976022;28;20292;-58
2022/05/08 06:48:16;;;;;;;23.83;20.53;;;;;;;14.52;100.00;95325.59;4976148;28;20196;-58
2022/05/08 06:50:43;;;;;;;21.80;19.50;;;;;;;14.47;100.00;95328.09;4975936;28;20255;-67
2022/05/08 06:53:08;;;;;;;21.73;19.20;;;;;;;14.56;100.00;95326.28;4976558;28;20185;-57
2022/05/08 06:55:34;;;;;;;23.03;19.50;;;;;;;14.55;100.00;95346.72;4975493;28;20215;-60
2022/05/08 06:58:00;;;;;;;22.37;19.70;;;;;;;14.70;100.00;95336.94;4975986;28;20187;-60
2022/05/08 07:03:09;;;;;;;20.50;18.40;;;;;;;14.56;100.00;95348.25;4976851;28;20207;-60
2022/05/08 07:05:40;;;;;;;20.40;18.30;;;;;;;14.48;100.00;95352.38;4976234;28;20192;-60
2022/05/08 07:08:06;;;;;;;20.93;18.73;;;;;;;14.32;100.00;95360.63;4976827;28;20196;-61
2022/05/08 07:10:31;;;;;;;21.50;19.03;;;;;;;14.39;100.00;95367.94;4975876;28;20198;-63
2022/05/08 07:12:56;;;;;;;20.50;18.30;;;;;;;14.35;100.00;95378.97;4975545;28;20204;-60
2022/05/08 07:15:22;;;;;;;20.87;18.67;;;;;;;14.41;100.00;95360.81;4975857;28;20193;-60
2022/05/08 07:17:47;;;;;;;20.40;18.27;;;;;;;14.56;100.00;95370.25;4975383;28;20208;-60
2022/05/08 07:20:12;;;;;;;21.60;19.30;;;;;;;14.36;100.00;95366.81;4975685;28;20199;-60
2022/05/08 07:22:38;;;;;;;20.70;18.50;;;;;;;14.62;100.00;95360.31;4975311;28;20287;-60
2022/05/08 07:25:03;;;;;;;21.50;18.90;;;;;;;14.60;100.00;95370.94;4975575;28;20196;-60
2022/05/08 07:27:30;;;;;;;20.73;18.53;;;;;;;14.69;100.00;95373.09;4975496;28;20219;-64
2022/05/08 07:29:56;;;;;;;20.47;17.90;;;;;;;14.83;100.00;95379.00;4975531;28;20187;-66
2022/05/08 07:32:21;;;;;;;20.63;18.17;;;;;;;14.73;100.00;95382.03;4975329;28;20238;-59
2022/05/08 07:37:31;;;;;;;18.93;16.93;;;;;;;14.86;100.00;95389.16;4976980;28;20242;-63
2022/05/08 07:39:56;;;;;;;20.53;18.23;;;;;;;15.11;100.00;95383.78;4975219;28;20267;-61
2022/05/08 07:42:21;;;;;;;19.63;17.57;;;;;;;15.30;100.00;95393.91;4975230;28;20245;-61
2022/05/08 07:44:46;;;;;;;19.00;16.73;;;;;;;15.00;100.00;95416.28;4974756;28;20212;-59
2022/05/08 07:47:13;;;;;;;17.37;15.57;;;;;;;14.96;100.00;95425.84;4975081;28;20207;-50
2022/05/08 07:49:39;;;;;;;16.23;14.53;;;;;;;15.21;100.00;95410.25;4975207;28;20185;-65
2022/05/08 07:52:04;;;;;;;19.70;16.33;;;;;;;15.56;100.00;95409.34;4975034;28;20203;-64
2022/05/08 07:54:29;;;;;;;17.90;15.93;;;;;;;15.77;100.00;95419.78;4975765;28;20195;-64
2022/05/08 07:56:55;;;;;;;16.47;14.77;;;;;;;15.72;100.00;95425.03;4975299;28;20193;-65
2022/05/08 07:59:20;;;;;;;16.27;14.57;;;;;;;15.48;100.00;95429.25;4974860;28;20184;-64
2022/05/08 08:01:45;;;;;;;16.57;14.77;;;;;;;15.36;100.00;95440.97;4974917;28;20188;-65
2022/05/08 08:04:11;;;;;;;18.17;16.27;;;;;;;15.47;100.00;95430.44;4975016;28;20204;-56
2022/05/08 08:06:36;;;;;;;18.43;16.47;;;;;;;15.29;100.00;95441.88;4974847;28;20328;-57
2022/05/08 08:09:04;;;;;;;18.40;15.93;;;;;;;15.00;100.00;95432.81;4974866;28;20212;-72
2022/05/08 08:11:33;;;;;;;18.33;15.80;;;;;;;15.19;100.00;95429.16;4974607;28;20193;-67
2022/05/08 08:13:58;;;;;;;18.17;16.13;;;;;;;15.12;100.00;95434.84;4974898;28;20185;-70
2022/05/08 08:16:24;;;;;;;18.03;16.13;;;;;;;15.14;100.00;95437.97;4974678;28;20203;-72
2022/05/08 08:18:54;;;;;;;18.67;16.77;;;;;;;14.96;100.00;95436.84;4974679;28;20235;-71
2022/05/08 08:21:19;;;;;;;18.20;15.83;;;;;;;15.00;100.00;95429.25;4974673;28;20189;-71
2022/05/08 08:23:45;;;;;;;18.30;15.20;;;;;;;14.80;100.00;95434.88;4974953;28;20211;-60
2022/05/08 08:26:13;;;;;;;16.57;14.87;;;;;;;14.96;100.00;95432.13;4974305;28;20195;-58
2022/05/08 08:28:39;;;;;;;16.13;14.53;;;;;;;14.91;100.00;95429.91;4974581;28;20283;-58
2022/05/08 08:31:06;;;;;;;15.60;14.00;;;;;;;14.86;100.00;95433.13;4974521;28;20191;-58
2022/05/08 08:33:32;;;;;;;15.40;13.83;;;;;;;14.71;100.00;95445.69;4974635;28;20198;-59
2022/05/08 08:35:57;;;;;;;16.63;14.20;;;;;;;14.75;100.00;95438.13;4974332;28;20279;-59
2022/05/08 08:38:23;;;;;;;15.63;14.17;;;;;;;14.89;100.00;95432.28;4974768;28;20188;-58
2022/05/08 08:40:49;;;;;;;14.67;13.17;;;;;;;14.86;100.00;95438.63;4974176;28;20189;-58
2022/05/08 08:43:19;;;;;;;15.03;13.53;;;;;;;14.93;100.00;95449.47;4990694;28;20275;-54
2022/05/08 08:48:31;;;;;;;14.47;13.00;;;;;;;14.83;100.00;95445.00;4975746;28;20253;-65
2022/05/08 08:50:57;;;;;;;14.73;13.33;;;;;;;14.74;100.00;95453.06;4975224;28;20242;-66
2022/05/08 08:53:25;;;;;;;15.33;13.73;;;;;;;14.71;100.00;95442.94;4974046;28;20195;-66
2022/05/08 08:55:51;;;;;;;13.73;12.40;;;;;;;14.80;100.00;95445.09;4974431;28;20198;-66
2022/05/08 08:58:17;;;;;;;14.93;13.37;;;;;;;14.77;100.00;95441.22;4975153;28;20173;-68
2022/05/08 09:00:43;;;;;;;13.57;12.27;;;;;;;15.03;100.00;95445.69;4973875;28;20238;-62
2022/05/08 09:03:09;;;;;;;14.53;12.83;;;;;;;15.08;100.00;95450.66;4974498;28;20213;-64
2022/05/08 09:05:37;;;;;;;13.73;12.33;;;;;;;15.14;100.00;95453.69;4974110;28;20185;-69
2022/05/08 09:08:03;;;;;;;15.63;12.00;;;;;;;15.23;100.00;95457.38;4973776;28;20199;-66
2022/05/08 09:10:35;;;;;;;12.93;11.63;;;;;;;15.20;100.00;95480.25;4974119;28;20180;-64
2022/05/08 09:13:06;;;;;;;13.13;11.20;;;;;;;15.13;100.00;95479.66;4973788;28;20192;-65
2022/05/08 09:15:36;;;;;;;11.93;10.73;;;;;;;15.21;100.00;95481.00;4974136;28;20199;-71
2022/05/08 09:18:03;;;;;;;11.47;10.27;;;;;;;15.37;100.00;95481.81;4974285;28;20276;-59
2022/05/08 09:20:39;;;;;;;10.17;9.27;;;;;;;15.67;100.00;95499.94;4974192;28;20219;-71
2022/05/08 09:23:10;;;;;;;10.77;9.77;;;;;;;16.17;100.00;95509.16;4975239;28;20219;-70
2022/05/08 09:25:45;;;;;;;11.03;9.33;;;;;;;16.02;100.00;95530.06;4977375;28;20195;-70
2022/05/08 09:28:27;;;;;;;9.90;9.00;;;;;;;16.71;100.00;95525.00;4993542;28;20205;-70
2022/05/08 09:31:00;;;;;;;10.23;9.23;;;;;;;16.56;100.00;95545.91;4977911;28;20226;-72
2022/05/08 09:33:36;;;;;;;10.30;9.13;;;;;;;16.66;100.00;95550.34;4977400;28;20227;-69
2022/05/08 09:36:27;;;;;;;10.23;8.77;;;;;;;16.19;100.00;95564.63;4977583;28;20187;-59
2022/05/08 09:38:55;;;;;;;10.27;9.23;;;;;;;16.91;100.00;95548.41;4976913;28;20192;-69
2022/05/08 09:41:27;;;;;;;9.90;8.90;;;;;;;17.37;100.00;95555.28;4976907;28;20196;-66
2022/05/08 09:43:54;;;;;;;9.20;8.23;;;;;;;17.39;100.00;95555.59;4993153;28;20212;-63
2022/05/08 09:46:20;;;;;;;10.10;9.10;;;;;;;16.99;100.00;95577.34;4977715;28;20247;-66
2022/05/08 09:48:47;;;;;;;9.17;8.23;;;;;;;17.33;100.00;95584.97;4976916;28;20193;-67
2022/05/08 09:51:15;;;;;;;9.63;8.83;;;;;;;17.62;100.00;95577.34;4977131;28;20195;-65
2022/05/08 09:53:41;;;;;;;9.33;8.43;;;;;;;17.91;100.00;95583.50;4977435;28;20215;-65
2022/05/08 09:56:09;;;;;;;9.33;8.53;;;;;;;18.01;100.00;95585.13;4976724;28;20207;-68
2022/05/08 09:58:35;;;;;;;9.20;8.37;;;;;;;17.77;100.00;95600.56;4976733;28;20192;-60
2022/05/08 10:01:01;;;;;;;8.73;8.03;;;;;;;17.75;100.00;95598.25;4976813;28;20186;-58
2022/05/08 10:03:28;;;;;;;8.63;7.73;;;;;;;18.00;100.00;95608.47;4976717;28;20209;-59
2022/05/08 10:05:55;;;;;;;9.27;8.33;;;;;;;17.27;100.00;95614.34;4976549;28;20185;-59
2022/05/08 10:08:28;;;;;;;9.27;8.37;;;;;;;16.84;100.00;95597.50;4976616;28;20198;-58
2022/05/08 10:13:54;;;;;;;8.93;8.03;;;;;;;17.04;100.00;95587.06;4978037;28;20219;-52
2022/05/08 10:16:50;;;;;;;10.63;8.60;;;;;;;17.80;100.00;95583.06;4977094;28;20195;-65
2022/05/08 10:19:22;;;;;;;9.37;8.43;;;;;;;17.52;100.00;95600.56;4977767;28;20212;-67
2022/05/08 10:21:55;;;;;;;8.83;8.03;;;;;;;17.82;100.00;95594.47;4992586;28;20189;-67
2022/05/08 10:24:31;;;;;;;9.07;8.13;;;;;;;17.77;100.00;95606.09;4992508;28;20213;-64
2022/05/08 10:27:28;;;;;;;9.00;8.07;;;;;;;17.76;100.00;95610.03;4992474;28;20219;-64
2022/05/08 10:29:53;;;;;;;9.03;8.10;;;;;;;18.16;100.00;95611.84;4976579;28;20237;-66
2022/05/08 10:32:27;;;;;;;8.90;8.10;;;;;;;18.68;100.00;95619.53;4992972;28;20203;-59
2022/05/08 10:35:15;;;;;;;9.30;7.90;;;;;;;18.30;100.00;95621.66;4991169;28;20188;-58
2022/05/08 10:37:46;;;;;;;9.10;8.20;;;;;;;18.25;100.00;95619.47;4977409;28;20191;-61
2022/05/08 10:40:23;;;;;;;9.60;8.70;;;;;;;18.55;100.00;95621.59;4976422;28;20197;-59
2022/05/08 10:42:59;;;;;;;9.50;8.03;;;;;;;18.05;100.00;95627.25;4992050;28;20322;-58
2022/05/08 10:45:38;;;;;;;9.33;8.43;;;;;;;18.04;100.00;95631.22;4976811;28;20191;-58
2022/05/08 10:48:07;;;;;;;10.70;8.73;;;;;;;17.72;100.00;95621.22;4976735;28;20194;-58
2022/05/08 10:50:33;;;;;;;8.60;7.80;;;;;;;18.52;100.00;95619.72;4992847;28;20220;-54
2022/05/08 10:52:58;;;;;;;9.07;8.27;;;;;;;18.08;100.00;95618.06;4976110;28;20206;-59
2022/05/08 10:55:26;;;;;;;9.27;8.47;;;;;;;18.27;100.00;95622.53;4976236;28;20181;-58
2022/05/08 10:57:52;;;;;;;8.80;8.00;;;;;;;18.79;100.00;95625.44;4975927;28;20220;-58
2022/05/08 11:00:26;;;;;;;8.20;7.43;;;;;;;18.19;100.00;95638.63;4976030;28;20260;-59
2022/05/08 11:02:56;;;;;;;8.10;7.40;;;;;;;17.55;100.00;95630.84;4992076;28;20220;-58
2022/05/08 11:05:23;;;;;;;8.50;7.70;;;;;;;17.28;100.00;95641.50;4975661;28;20192;-60
2022/05/08 11:07:53;;;;;;;8.93;8.13;;;;;;;17.09;100.00;95627.91;4976192;28;20185;-68
2022/05/08 11:10:23;;;;;;;8.73;7.90;;;;;;;16.85;100.00;95632.94;4975736;28;20192;-55
2022/05/08 11:13:00;;;;;;;9.73;8.83;;;;;;;17.03;100.00;95619.38;4975859;28;20208;-59
2022/05/08 11:15:26;;;;;;;9.67;8.77;;;;;;;17.19;100.00;95619.28;4975905;28;20196;-59
2022/05/08 11:18:09;;;;;;;9.33;8.33;;;;;;;16.97;100.00;95609.34;4975388;28;20255;-59
2022/05/08 11:20:38;;;;;;;9.50;8.63;;;;;;;17.34;100.00;95600.31;4991718;28;20192;-58
2022/05/08 11:23:05;;;;;;;9.00;8.20;;;;;;;17.81;100.00;95606.75;4976347;28;20243;-57
2022/05/08 11:25:32;;;;;;;9.13;8.23;;;;;;;18.25;100.00;95608.41;4975588;28;20196;-58
2022/05/08 11:27:58;;;;;;;9.40;8.50;;;;;;;18.57;100.00;95613.59;4975238;28;20188;-63
2022/05/08 11:30:42;;;;;;;9.57;8.60;;;;;;;18.04;100.00;95634.00;4975494;28;20216;-69
2022/05/08 11:36:05;;;;;;;9.73;8.80;;;;;;;18.52;100.00;95653.69;4976877;28;20192;-69
2022/05/08 11:38:44;;;;;;;9.50;8.50;;;;;;;18.27;100.00;95650.19;4975381;28;20189;-70